KLRD/LRD METAR and TAF weather

Enter ICAO airport designator
Station Type Date Time Source
KLRD METAR 2019/06/26 15:56 UTC NOAA

KLRD 261556Z 14011KT 10SM FEW027 BKN035 32/23 A3003 RMK AO2 SLP163 T03220228


Station Type Date Time Source
KLRD Decoded METAR 2019/06/26 15:56 UTC NOAA

Laredo, Laredo International Airport, TX, United States (KLRD) 27-32-37N 099-27-41W
Jun 26, 2019 - 11:56 AM EDT / 2019.06.26 1556 UTC
Wind: from the SE (140 degrees) at 13 MPH (11 KT):0
Visibility: 10 mile(s):0
Sky conditions: mostly cloudy
Temperature: 90.0 F (32.2 C)
Heat index: 98.1 F (36.7 C):1
Dew Point: 73.0 F (22.8 C)
Relative Humidity: 57%
Pressure (altimeter): 30.03 in. Hg (1016 hPa)
ob: KLRD 261556Z 14011KT 10SM FEW027 BKN035 32/23 A3003 RMK AO2 SLP163 T03220228
cycle: 16

Station Type Date Time Source
KLRD TAF 2019/06/26 13:30 UTC NOAA

TAF
AMD KLRD 261326Z 2613/2712 13009KT P6SM SCT009 BKN025
TEMPO 2613/2615 BKN009
FM261600 14016KT P6SM BKN070

Example: see airport list